Aérodrome :
LOGIN :

S'inscrire | Disclaimer

   EN    FR    IT 

 










Légende :    VFR   VFR Marginal   IFR   IFR Intensif   IFR Très Intensif
Visi : 
Plafond : 
>= 8 km
>= 3000ft
5 à 8 km
1000 à 3000 ft
1500m à 5 km
500 à 1000 ft
800 à 1500m
200 à 500 ft
< 800m
< 200 ft
Symboles :   Orages  Brouillard  Fortes neiges  Fortes précipitations  Vent > 20 kt
SIGMETs :   Divers  Orages  Givrage  Turbulence  Onde Orograph.  Cendres Volcan.







- Altitude de l'aérodrome : 587 ft
- Code IATA : XCR
- Voir les cartes d'approche


LFOK - Chalons Vatry

DERNIER METAR :
  • 222200Z AUTO 20008KT CAVOK 16/12 Q1014 NOSIG

METARs EXPIRÉS :
  • 222130Z AUTO 19007KT CAVOK 16/13 Q1014 NOSIG
  • 222100Z AUTO 20007KT CAVOK 16/12 Q1014 NOSIG
  • 222030Z AUTO 21008KT CAVOK 17/12 Q1014 NOSIG
  • 222000Z AUTO 19008KT CAVOK 18/12 Q1013 NOSIG
  • 221930Z AUTO 20007KT CAVOK 17/13 Q1013 NOSIG

TAF TAF LFOK
Valide du 22 à 18h jusqu'au 23 à 18h UTC


221700Z 2218/2318 22012KT CAVOK
BECMG 2305/2307 30010KT
Pas de NOTAMs connus pour ce terrain.



MET'MAP, la Météo Aéronautique d'un coup d'oeil ! - Copyright ORBIFLY Décembre 2007 - Disclaimer

ORBIFLY MET'MAP TEAM :

Programmation & Développement : Alexandra Zaïnal
Conception & Développement : Baudouin d'Aumeries
Co-Programmation & Développement : Marc-Olivier Méhu
Soutien technique & logistique : Manuel Goepfert

Contact : metmap@orbifly.com




SOURCES & CREDITS :

   NOAA